Time;durP1;ratioP1;P1;durP2;ratioP2;P2;SDS_P1;SDS_P2;PMS_P1;PMS_P2;Temp;Humidity;BMP_temperature;BMP_pressure;BME280_temperature;BME280_humidity;BME280_pressure;Samples;Min_cycle;Max_cycle;Signal;HPM_P1;HPM_P2
2022/12/10 00:02:51;;;;;;;53.50;29.50;;;;;;;;;;6599800;28;20200;-92
2022/12/10 00:06:02;;;;;;;57.53;29.97;;;;;;;;;;6599707;28;20200;-91
2022/12/10 00:09:14;;;;;;;48.00;26.90;;;;;;;;;;6600712;28;20272;-93
2022/12/10 00:12:25;;;;;;;44.13;25.87;;;;;;;;;;6599983;28;20179;-92
2022/12/10 00:15:35;;;;;;;35.33;21.37;;;;;;;;;;6582815;28;20184;-92
2022/12/10 00:18:46;;;;;;;39.10;21.03;;;;;;;;;;6599325;28;20179;-91
2022/12/10 00:21:56;;;;;;;62.53;33.10;;;;;;;;;;6600092;28;20176;-92
2022/12/10 00:25:07;;;;;;;46.93;29.43;;;;;;;;;;6599428;28;20196;-92
2022/12/10 00:28:17;;;;;;;43.57;26.73;;;;;;;;;;6581785;28;20211;-92
2022/12/10 00:31:28;;;;;;;49.73;30.63;;;;;;;;;;6581668;28;20169;-92
2022/12/10 00:34:39;;;;;;;34.23;20.87;;;;;;;;;;6599272;28;20224;-91
2022/12/10 00:37:49;;;;;;;33.10;19.67;;;;;;;;;;6599719;28;20175;-90
2022/12/10 00:40:59;;;;;;;34.83;20.93;;;;;;;;;;6599107;28;20234;-91
2022/12/10 00:44:10;;;;;;;33.47;18.40;;;;;;;;;;6581204;28;20207;-91
2022/12/10 00:47:20;;;;;;;44.60;27.23;;;;;;;;;;6581278;28;20187;-92
2022/12/10 00:50:30;;;;;;;40.27;25.17;;;;;;;;;;6581226;28;20638;-92
2022/12/10 00:53:42;;;;;;;36.97;20.83;;;;;;;;;;6600012;28;20187;-92
2022/12/10 00:56:52;;;;;;;32.93;20.20;;;;;;;;;;6598879;28;20523;-92
2022/12/10 01:00:03;;;;;;;21.90;13.90;;;;;;;;;;6581018;28;20239;-92
2022/12/10 01:03:13;;;;;;;33.13;19.63;;;;;;;;;;6581579;28;20275;-92
2022/12/10 01:06:23;;;;;;;31.30;19.47;;;;;;;;;;6580794;28;20196;-92
2022/12/10 01:09:34;;;;;;;33.43;20.57;;;;;;;;;;6598459;28;20211;-92
2022/12/10 01:12:45;;;;;;;36.80;22.13;;;;;;;;;;6579992;28;20172;-92
2022/12/10 01:15:56;;;;;;;36.83;22.63;;;;;;;;;;6598743;28;20251;-92
2022/12/10 01:19:06;;;;;;;33.87;21.13;;;;;;;;;;6580204;28;20650;-92
2022/12/10 01:22:16;;;;;;;32.97;19.90;;;;;;;;;;6599016;28;20172;-92
2022/12/10 01:25:27;;;;;;;29.00;18.30;;;;;;;;;;6580236;28;20207;-92
2022/12/10 01:28:38;;;;;;;27.73;18.67;;;;;;;;;;6581402;28;20609;-92
2022/12/10 01:31:52;;;;;;;34.13;19.00;;;;;;;;;;6597688;28;20311;-92
2022/12/10 01:35:03;;;;;;;36.57;22.80;;;;;;;;;;6597453;28;20319;-92
2022/12/10 01:38:13;;;;;;;33.67;20.70;;;;;;;;;;6597737;28;20172;-92
2022/12/10 01:41:25;;;;;;;32.17;19.50;;;;;;;;;;6597273;28;20202;-92
2022/12/10 01:44:41;;;;;;;30.13;19.00;;;;;;;;;;6579754;28;20201;-92
2022/12/10 01:47:51;;;;;;;31.77;20.43;;;;;;;;;;6598635;28;20179;-92
2022/12/10 01:51:02;;;;;;;28.07;16.63;;;;;;;;;;6579778;28;20622;-92
2022/12/10 01:54:14;;;;;;;18.00;12.10;;;;;;;;;;6579725;28;20188;-92
2022/12/10 01:57:26;;;;;;;25.33;16.30;;;;;;;;;;6579660;28;20183;-92
2022/12/10 02:00:38;;;;;;;40.50;24.97;;;;;;;;;;6579448;28;20287;-92
2022/12/10 02:03:48;;;;;;;35.87;21.20;;;;;;;;;;6579680;28;20649;-92
2022/12/10 02:07:02;;;;;;;27.50;17.37;;;;;;;;;;6597175;28;20164;-92
2022/12/10 02:10:31;;;;;;;31.43;19.73;;;;;;;;;;6579339;28;20553;-92
2022/12/10 02:14:07;;;;;;;34.07;22.23;;;;;;;;;;6597004;28;20180;-92
2022/12/10 02:17:36;;;;;;;34.60;22.20;;;;;;;;;;6592365;28;20196;-92
2022/12/10 02:20:49;;;;;;;28.23;17.43;;;;;;;;;;6580161;28;20176;-92
2022/12/10 02:24:08;;;;;;;32.33;19.13;;;;;;;;;;6578893;28;20258;-91
2022/12/10 02:27:57;;;;;;;35.17;20.30;;;;;;;;;;6579008;28;20181;-93
2022/12/10 02:31:09;;;;;;;32.17;19.63;;;;;;;;;;6450273;29;20180;-92
2022/12/10 02:34:21;;;;;;;32.17;18.90;;;;;;;;;;6458628;28;20239;-92
2022/12/10 02:37:33;;;;;;;34.17;20.37;;;;;;;;;;6579447;28;20176;-92
2022/12/10 02:40:46;;;;;;;28.50;17.33;;;;;;;;;;6596924;28;20188;-92
2022/12/10 02:43:57;;;;;;;30.70;19.00;;;;;;;;;;6596707;28;20204;-92
2022/12/10 02:47:07;;;;;;;32.20;20.40;;;;;;;;;;6578723;28;20598;-92
2022/12/10 02:50:19;;;;;;;35.90;21.73;;;;;;;;;;6596272;28;20164;-92
2022/12/10 02:53:29;;;;;;;27.53;15.27;;;;;;;;;;6596994;28;20571;-92
2022/12/10 02:56:45;;;;;;;33.07;20.97;;;;;;;;;;6596882;28;20164;-92
2022/12/10 03:00:16;;;;;;;33.60;20.03;;;;;;;;;;6579018;28;20168;-92
2022/12/10 03:03:37;;;;;;;24.87;15.37;;;;;;;;;;6596502;28;20161;-92
2022/12/10 03:06:52;;;;;;;33.03;19.87;;;;;;;;;;6596595;28;20188;-92
2022/12/10 03:10:28;;;;;;;33.37;20.63;;;;;;;;;;6596339;28;20261;-92
2022/12/10 03:13:42;;;;;;;40.73;25.50;;;;;;;;;;6591010;28;20188;-92
2022/12/10 03:16:59;;;;;;;29.90;17.27;;;;;;;;;;6596319;28;20195;-92
2022/12/10 03:20:12;;;;;;;29.67;17.13;;;;;;;;;;6578185;28;20169;-92
2022/12/10 03:23:22;;;;;;;27.43;16.97;;;;;;;;;;6595472;28;20173;-92
2022/12/10 03:26:33;;;;;;;27.07;15.83;;;;;;;;;;6578056;28;20675;-91
2022/12/10 03:29:51;;;;;;;30.90;18.90;;;;;;;;;;6596121;28;20173;-91
2022/12/10 03:33:01;;;;;;;30.30;17.83;;;;;;;;;;6596090;28;20218;-91
2022/12/10 03:36:12;;;;;;;33.37;20.90;;;;;;;;;;6601338;28;20660;-92
2022/12/10 03:39:22;;;;;;;37.13;22.23;;;;;;;;;;6583498;28;20550;-92
2022/12/10 03:42:34;;;;;;;30.20;19.13;;;;;;;;;;6582929;28;20214;-92
2022/12/10 03:45:45;;;;;;;28.00;15.50;;;;;;;;;;6583515;28;20559;-92
2022/12/10 03:48:56;;;;;;;28.90;16.37;;;;;;;;;;6600512;28;20176;-92
2022/12/10 03:52:06;;;;;;;34.23;20.37;;;;;;;;;;6600062;28;20215;-91
2022/12/10 03:55:16;;;;;;;31.63;18.33;;;;;;;;;;6600356;28;20188;-91
2022/12/10 03:58:27;;;;;;;33.67;20.37;;;;;;;;;;6600352;28;20175;-92
2022/12/10 04:01:37;;;;;;;31.17;19.80;;;;;;;;;;6582377;28;20180;-92
2022/12/10 04:04:47;;;;;;;31.60;19.43;;;;;;;;;;6582288;28;20542;-92
2022/12/10 04:07:58;;;;;;;38.63;23.93;;;;;;;;;;6599716;28;20176;-92
2022/12/10 04:11:09;;;;;;;23.23;14.97;;;;;;;;;;6600383;28;20173;-92
2022/12/10 04:17:48;;;;;;;31.97;18.80;;;;;;;;;;6600244;28;20167;-92
2022/12/10 04:27:57;;;;;;;34.70;20.13;;;;;;;;;;6600044;28;20587;-91
2022/12/10 04:31:08;;;;;;;33.60;20.60;;;;;;;;;;6581706;28;20184;-92
2022/12/10 04:34:18;;;;;;;42.17;24.47;;;;;;;;;;6581415;28;20679;-92
2022/12/10 04:37:29;;;;;;;33.07;20.30;;;;;;;;;;6599271;28;20195;-92
2022/12/10 04:40:39;;;;;;;24.27;14.20;;;;;;;;;;6599352;28;20554;-91
2022/12/10 04:43:49;;;;;;;31.87;18.70;;;;;;;;;;6581273;28;20185;-92
2022/12/10 04:47:00;;;;;;;25.43;15.50;;;;;;;;;;6580191;28;20246;-91
2022/12/10 04:50:10;;;;;;;27.23;16.30;;;;;;;;;;6599439;28;20227;-92
2022/12/10 04:53:22;;;;;;;25.73;15.93;;;;;;;;;;6599322;28;20611;-91
2022/12/10 04:56:32;;;;;;;29.30;15.80;;;;;;;;;;6599208;28;20176;-92
2022/12/10 04:59:43;;;;;;;18.20;11.60;;;;;;;;;;6598886;28;20576;-92
2022/12/10 05:02:53;;;;;;;29.10;17.60;;;;;;;;;;6580962;28;20180;-92
2022/12/10 05:06:05;;;;;;;22.77;14.40;;;;;;;;;;6581634;28;20204;-92
2022/12/10 05:09:15;;;;;;;27.67;17.23;;;;;;;;;;6580789;28;20541;-92
2022/12/10 05:12:27;;;;;;;19.50;12.27;;;;;;;;;;6580371;28;20181;-92
2022/12/10 05:15:38;;;;;;;24.50;14.83;;;;;;;;;;6598471;28;20226;-92
2022/12/10 05:18:49;;;;;;;24.17;15.13;;;;;;;;;;6580617;28;20177;-92
2022/12/10 05:25:28;;;;;;;18.20;11.67;;;;;;;;;;6598556;28;20238;-91
2022/12/10 05:28:48;;;;;;;22.10;13.87;;;;;;;;;;6580293;28;20181;-92
2022/12/10 05:31:58;;;;;;;20.47;13.63;;;;;;;;;;6598073;28;20247;-92
2022/12/10 05:35:09;;;;;;;17.80;11.97;;;;;;;;;;6597580;28;20223;-92
2022/12/10 05:38:19;;;;;;;22.30;14.53;;;;;;;;;;6597803;28;20169;-92
2022/12/10 05:41:31;;;;;;;21.00;12.77;;;;;;;;;;6597757;28;20278;-92
2022/12/10 05:44:41;;;;;;;19.40;12.30;;;;;;;;;;6579855;28;20211;-92
2022/12/10 05:47:51;;;;;;;19.87;13.30;;;;;;;;;;6597253;28;20517;-92
2022/12/10 05:51:05;;;;;;;20.07;12.80;;;;;;;;;;6597852;28;20176;-93
2022/12/10 05:54:16;;;;;;;21.03;12.87;;;;;;;;;;6579706;28;20183;-92
2022/12/10 05:57:26;;;;;;;19.20;12.87;;;;;;;;;;6579345;28;20211;-92
2022/12/10 06:00:38;;;;;;;20.13;12.20;;;;;;;;;;6579579;28;20184;-92
2022/12/10 06:03:50;;;;;;;17.90;12.17;;;;;;;;;;6579496;28;20627;-92
2022/12/10 06:07:00;;;;;;;20.57;13.40;;;;;;;;;;6597393;28;20183;-93
2022/12/10 06:10:11;;;;;;;21.53;14.07;;;;;;;;;;6579388;28;20172;-92
2022/12/10 06:13:21;;;;;;;20.10;12.67;;;;;;;;;;6597339;28;20200;-92
2022/12/10 06:16:32;;;;;;;21.90;14.10;;;;;;;;;;6596869;28;20204;-92
2022/12/10 06:19:42;;;;;;;19.33;13.07;;;;;;;;;;6579035;28;20202;-92
2022/12/10 06:22:52;;;;;;;21.43;14.17;;;;;;;;;;6579372;28;20215;-93
2022/12/10 06:26:03;;;;;;;24.83;13.93;;;;;;;;;;6579631;28;20295;-92
2022/12/10 06:29:14;;;;;;;22.47;12.73;;;;;;;;;;6578803;28;20190;-92
2022/12/10 06:32:24;;;;;;;21.03;11.00;;;;;;;;;;6596899;28;20615;-92
2022/12/10 06:35:36;;;;;;;19.23;12.20;;;;;;;;;;6596233;28;20593;-92
2022/12/10 06:38:47;;;;;;;20.63;13.20;;;;;;;;;;6596178;28;20279;-92
2022/12/10 06:41:57;;;;;;;19.47;10.90;;;;;;;;;;6596678;28;20188;-92
2022/12/10 06:45:08;;;;;;;23.03;13.17;;;;;;;;;;6596205;28;20201;-92
2022/12/10 06:48:18;;;;;;;17.93;10.10;;;;;;;;;;6578470;28;20543;-92
2022/12/10 06:51:29;;;;;;;19.87;12.97;;;;;;;;;;6578505;28;20619;-92
2022/12/10 06:54:39;;;;;;;18.37;11.83;;;;;;;;;;6578632;28;20191;-92
2022/12/10 06:57:53;;;;;;;19.73;11.77;;;;;;;;;;6596129;28;20191;-92
2022/12/10 07:01:04;;;;;;;18.03;11.10;;;;;;;;;;6578352;28;20181;-92
2022/12/10 07:04:14;;;;;;;13.90;8.27;;;;;;;;;;6596394;28;20196;-92
2022/12/10 07:07:24;;;;;;;20.67;12.80;;;;;;;;;;6578412;28;20272;-92
2022/12/10 07:10:36;;;;;;;22.53;13.47;;;;;;;;;;6581742;28;20267;-92
2022/12/10 07:13:47;;;;;;;21.50;12.30;;;;;;;;;;6601745;28;20657;-92
2022/12/10 07:16:57;;;;;;;23.33;13.90;;;;;;;;;;6583624;28;20176;-92
2022/12/10 07:20:07;;;;;;;22.03;13.20;;;;;;;;;;6601590;28;20165;-92
2022/12/10 07:23:18;;;;;;;15.03;9.13;;;;;;;;;;6601176;28;20522;-92
2022/12/10 07:26:29;;;;;;;20.57;12.47;;;;;;;;;;6601287;28;20196;-92
2022/12/10 07:29:39;;;;;;;19.93;13.20;;;;;;;;;;6601692;28;20176;-92
2022/12/10 07:32:50;;;;;;;20.03;10.67;;;;;;;;;;6583285;28;20180;-92
2022/12/10 07:36:04;;;;;;;26.00;14.60;;;;;;;;;;6582906;28;20629;-92
2022/12/10 07:39:16;;;;;;;21.67;13.20;;;;;;;;;;6583070;28;20176;-92
2022/12/10 07:42:27;;;;;;;17.70;11.90;;;;;;;;;;6600608;28;20189;-92
2022/12/10 07:45:37;;;;;;;17.37;10.47;;;;;;;;;;6582670;28;20215;-92
2022/12/10 07:48:48;;;;;;;17.40;10.27;;;;;;;;;;6600565;28;20177;-92
2022/12/10 07:51:58;;;;;;;16.50;10.30;;;;;;;;;;6582688;28;20208;-92
2022/12/10 07:55:09;;;;;;;23.93;14.73;;;;;;;;;;6600761;28;20175;-92
2022/12/10 07:58:19;;;;;;;28.43;18.30;;;;;;;;;;6600264;28;20627;-92
2022/12/10 08:01:29;;;;;;;26.27;17.87;;;;;;;;;;6599934;28;20173;-92
2022/12/10 08:04:40;;;;;;;26.70;18.23;;;;;;;;;;6600445;28;20239;-92
2022/12/10 08:07:50;;;;;;;14.90;10.93;;;;;;;;;;6583066;28;20256;-92
2022/12/10 08:11:01;;;;;;;22.23;14.03;;;;;;;;;;6599878;28;20211;-92
2022/12/10 08:14:11;;;;;;;23.73;15.43;;;;;;;;;;6599811;28;20200;-92
2022/12/10 08:17:21;;;;;;;29.40;18.17;;;;;;;;;;6599378;28;20629;-92
2022/12/10 08:20:31;;;;;;;21.93;13.83;;;;;;;;;;6598627;28;20259;-92
2022/12/10 08:23:42;;;;;;;25.07;15.07;;;;;;;;;;6581062;28;20180;-92
2022/12/10 08:26:52;;;;;;;21.80;13.67;;;;;;;;;;6581086;28;20251;-92
2022/12/10 08:30:03;;;;;;;21.57;14.23;;;;;;;;;;6599534;28;20172;-91
2022/12/10 08:33:14;;;;;;;23.00;14.67;;;;;;;;;;6599153;28;20697;-92
2022/12/10 08:36:24;;;;;;;23.23;13.63;;;;;;;;;;6598829;28;20320;-92
2022/12/10 08:39:34;;;;;;;22.17;13.20;;;;;;;;;;6598128;28;20176;-91
2022/12/10 08:42:44;;;;;;;17.93;11.47;;;;;;;;;;6598968;28;20527;-91
2022/12/10 08:45:57;;;;;;;24.00;14.93;;;;;;;;;;6599001;28;20247;-92
2022/12/10 08:49:08;;;;;;;20.47;13.03;;;;;;;;;;6580959;28;20184;-92
2022/12/10 08:52:18;;;;;;;19.53;12.30;;;;;;;;;;6581802;28;20211;-92
2022/12/10 08:55:28;;;;;;;18.67;11.93;;;;;;;;;;6581476;28;20199;-91
2022/12/10 08:58:39;;;;;;;19.00;10.80;;;;;;;;;;6598294;28;20173;-92
2022/12/10 09:01:51;;;;;;;13.73;8.00;;;;;;;;;;6598723;28;20199;-92
2022/12/10 09:05:01;;;;;;;18.20;10.63;;;;;;;;;;6581309;28;20196;-92
2022/12/10 09:08:11;;;;;;;17.40;10.53;;;;;;;;;;6598009;28;20204;-91
2022/12/10 09:11:30;;;;;;;24.90;15.30;;;;;;;;;;6580972;28;20177;-92
2022/12/10 09:14:41;;;;;;;21.50;13.70;;;;;;;;;;6597540;28;20180;-91
2022/12/10 09:17:52;;;;;;;22.57;14.40;;;;;;;;;;6579706;28;20184;-91
2022/12/10 09:21:12;;;;;;;35.03;22.60;;;;;;;;;;6596699;28;20184;-91
2022/12/10 09:24:23;;;;;;;27.57;16.67;;;;;;;;;;6597401;28;20200;-92
2022/12/10 09:27:33;;;;;;;36.33;21.27;;;;;;;;;;6596253;28;20185;-92
2022/12/10 09:30:44;;;;;;;24.07;14.93;;;;;;;;;;6578595;28;20314;-91
2022/12/10 09:33:54;;;;;;;31.37;19.47;;;;;;;;;;6595951;28;20315;-92
2022/12/10 09:37:04;;;;;;;28.70;17.10;;;;;;;;;;6596291;28;20267;-91
2022/12/10 09:40:16;;;;;;;29.93;17.30;;;;;;;;;;6595933;28;20188;-92
2022/12/10 09:43:39;;;;;;;27.43;17.00;;;;;;;;;;6596396;28;20169;-91
2022/12/10 09:46:50;;;;;;;25.93;16.07;;;;;;;;;;6578209;28;20228;-91
2022/12/10 09:50:00;;;;;;;21.47;13.57;;;;;;;;;;6578400;28;20524;-92
2022/12/10 09:53:13;;;;;;;18.83;11.97;;;;;;;;;;6596105;28;20611;-92
2022/12/10 09:56:30;;;;;;;25.47;15.20;;;;;;;;;;6577858;28;20183;-92
2022/12/10 09:59:41;;;;;;;29.53;16.27;;;;;;;;;;6595576;28;20173;-92
2022/12/10 10:02:55;;;;;;;25.97;15.10;;;;;;;;;;6594908;28;20184;-92
2022/12/10 10:06:06;;;;;;;28.83;18.00;;;;;;;;;;6578229;28;20219;-91
2022/12/10 10:09:17;;;;;;;18.03;11.93;;;;;;;;;;6577074;28;20639;-91
2022/12/10 10:12:29;;;;;;;25.73;15.27;;;;;;;;;;6595171;28;20539;-91
2022/12/10 10:15:42;;;;;;;23.70;14.47;;;;;;;;;;6595347;28;20212;-91
2022/12/10 10:18:58;;;;;;;13.37;8.50;;;;;;;;;;6592466;28;20173;-91
2022/12/10 10:22:10;;;;;;;18.60;10.63;;;;;;;;;;6595818;28;20200;-92
2022/12/10 10:25:20;;;;;;;28.10;16.03;;;;;;;;;;6595729;28;20200;-91
2022/12/10 10:28:30;;;;;;;32.27;17.67;;;;;;;;;;6578123;28;20638;-91
2022/12/10 10:31:42;;;;;;;37.43;21.50;;;;;;;;;;6595812;28;20230;-92
2022/12/10 10:34:53;;;;;;;29.43;18.17;;;;;;;;;;6577104;28;20220;-91
2022/12/10 10:38:13;;;;;;;39.13;22.03;;;;;;;;;;6576687;28;20542;-91
2022/12/10 10:41:24;;;;;;;20.93;12.97;;;;;;;;;;6577200;28;20196;-91
2022/12/10 10:44:35;;;;;;;26.30;14.77;;;;;;;;;;6594239;28;20607;-91
2022/12/10 10:47:46;;;;;;;20.73;12.03;;;;;;;;;;6577828;28;20181;-91
2022/12/10 10:51:05;;;;;;;27.47;14.43;;;;;;;;;;6595462;28;20180;-91
2022/12/10 10:54:34;;;;;;;29.37;17.27;;;;;;;;;;6594274;28;20184;-92
2022/12/10 10:57:45;;;;;;;26.67;13.97;;;;;;;;;;6592665;28;20581;-92
2022/12/10 11:01:07;;;;;;;30.67;17.43;;;;;;;;;;6594244;28;20172;-91
2022/12/10 11:04:21;;;;;;;45.03;25.07;;;;;;;;;;6591910;28;20199;-91
2022/12/10 11:07:39;;;;;;;68.93;39.30;;;;;;;;;;6594608;28;20175;-91
2022/12/10 11:10:50;;;;;;;30.73;16.97;;;;;;;;;;6577513;28;20709;-92
2022/12/10 11:14:15;;;;;;;32.90;17.13;;;;;;;;;;6577509;28;20172;-91
2022/12/10 11:17:26;;;;;;;45.90;23.80;;;;;;;;;;6577378;28;20176;-91
2022/12/10 11:20:37;;;;;;;43.27;21.60;;;;;;;;;;6594660;28;20173;-91
2022/12/10 11:23:49;;;;;;;47.67;22.60;;;;;;;;;;6595329;28;20522;-91
2022/12/10 11:27:13;;;;;;;32.40;17.30;;;;;;;;;;6595040;28;20192;-91
2022/12/10 11:30:25;;;;;;;30.90;17.37;;;;;;;;;;6595210;28;20267;-91
2022/12/10 11:33:35;;;;;;;28.17;15.67;;;;;;;;;;6594746;28;20168;-92
2022/12/10 11:36:48;;;;;;;29.10;15.83;;;;;;;;;;6576698;28;20184;-91
2022/12/10 11:40:17;;;;;;;41.17;24.17;;;;;;;;;;6577042;28;20619;-91
2022/12/10 11:43:46;;;;;;;30.07;13.73;;;;;;;;;;6594359;28;20232;-92
2022/12/10 11:46:57;;;;;;;57.53;31.60;;;;;;;;;;6598328;28;20302;-90
2022/12/10 11:50:10;;;;;;;57.13;33.80;;;;;;;;;;6608359;28;20173;-91
2022/12/10 11:53:38;;;;;;;64.13;33.00;;;;;;;;;;6594853;28;20562;-91
2022/12/10 11:56:57;;;;;;;48.27;26.17;;;;;;;;;;6598640;28;20175;-91
2022/12/10 12:00:22;;;;;;;41.47;21.60;;;;;;;;;;6600297;28;20172;-91
2022/12/10 12:03:40;;;;;;;37.47;19.17;;;;;;;;;;6599986;28;20172;-91
2022/12/10 12:07:09;;;;;;;57.97;28.63;;;;;;;;;;6599376;28;20211;-91
2022/12/10 12:10:27;;;;;;;45.93;23.53;;;;;;;;;;6582364;28;20192;-91
2022/12/10 12:13:37;;;;;;;35.27;19.53;;;;;;;;;;6581213;28;20172;-91
2022/12/10 12:16:51;;;;;;;33.47;17.93;;;;;;;;;;6581069;28;20215;-91
2022/12/10 12:20:11;;;;;;;29.23;14.40;;;;;;;;;;6599124;28;20170;-91
2022/12/10 12:23:26;;;;;;;36.40;18.13;;;;;;;;;;6581945;28;20630;-91
2022/12/10 12:26:41;;;;;;;31.07;15.90;;;;;;;;;;6598457;28;20205;-91
2022/12/10 12:30:12;;;;;;;37.63;18.07;;;;;;;;;;6598509;28;20207;-91
2022/12/10 12:33:52;;;;;;;42.13;21.87;;;;;;;;;;6597449;28;20218;-90
2022/12/10 12:37:02;;;;;;;48.77;23.03;;;;;;;;;;6511741;28;20211;-91
2022/12/10 12:40:30;;;;;;;72.17;34.50;;;;;;;;;;6598424;28;20319;-92
2022/12/10 12:43:52;;;;;;;49.80;29.40;;;;;;;;;;6581120;28;20173;-91
2022/12/10 12:47:21;;;;;;;48.77;25.40;;;;;;;;;;6597947;28;20233;-91
2022/12/10 12:50:40;;;;;;;31.53;16.70;;;;;;;;;;6598497;28;20226;-92
2022/12/10 12:53:51;;;;;;;37.83;21.30;;;;;;;;;;6581191;28;20511;-91
2022/12/10 12:57:14;;;;;;;42.07;21.13;;;;;;;;;;6581101;28;20176;-91
2022/12/10 13:00:28;;;;;;;41.60;22.23;;;;;;;;;;6580845;28;20183;-91
2022/12/10 13:03:41;;;;;;;43.93;23.80;;;;;;;;;;6597346;28;20183;-91
2022/12/10 13:07:10;;;;;;;41.37;23.97;;;;;;;;;;6596303;28;20290;-91
2022/12/10 13:10:23;;;;;;;49.53;25.07;;;;;;;;;;6580378;28;20573;-91
2022/12/10 13:13:35;;;;;;;28.60;14.07;;;;;;;;;;6597505;28;20195;-90
2022/12/10 13:16:48;;;;;;;50.90;26.37;;;;;;;;;;6597816;28;20173;-91
2022/12/10 13:20:18;;;;;;;39.33;21.20;;;;;;;;;;6579650;28;20611;-91
2022/12/10 13:23:30;;;;;;;34.47;17.97;;;;;;;;;;6579520;28;20542;-90
2022/12/10 13:27:00;;;;;;;29.00;15.43;;;;;;;;;;6580626;28;20599;-91
2022/12/10 13:30:29;;;;;;;42.40;23.03;;;;;;;;;;6596630;28;20180;-91
2022/12/10 13:33:48;;;;;;;36.03;20.07;;;;;;;;;;6594986;28;20353;-90
2022/12/10 13:37:01;;;;;;;35.70;19.37;;;;;;;;;;6579051;28;20612;-90
2022/12/10 13:40:11;;;;;;;37.67;19.43;;;;;;;;;;6597459;28;20180;-90
2022/12/10 13:46:55;;;;;;;41.03;19.93;;;;;;;;;;6596455;28;20685;-91
2022/12/10 13:50:14;;;;;;;36.90;19.30;;;;;;;;;;6597070;28;20177;-91
2022/12/10 13:53:29;;;;;;;38.47;18.53;;;;;;;;;;6596603;28;20157;-91
2022/12/10 13:56:40;;;;;;;33.40;18.03;;;;;;;;;;6579825;28;20226;-90
2022/12/10 13:59:59;;;;;;;46.93;25.90;;;;;;;;;;6597192;28;20208;-90
2022/12/10 14:03:23;;;;;;;45.47;25.43;;;;;;;;;;6596199;28;20565;-91
2022/12/10 14:06:41;;;;;;;49.40;28.27;;;;;;;;;;6578512;28;20218;-90
2022/12/10 14:09:53;;;;;;;43.17;26.13;;;;;;;;;;6579512;28;20180;-90
2022/12/10 14:13:04;;;;;;;38.10;20.47;;;;;;;;;;6595966;28;20527;-91
2022/12/10 14:16:18;;;;;;;35.87;20.87;;;;;;;;;;6578334;28;20719;-90
2022/12/10 14:19:29;;;;;;;31.53;17.03;;;;;;;;;;6595754;28;20658;-90
2022/12/10 14:22:44;;;;;;;38.63;19.83;;;;;;;;;;6595568;28;20169;-90
2022/12/10 14:25:54;;;;;;;49.43;26.83;;;;;;;;;;6577905;28;20688;-90
2022/12/10 14:29:08;;;;;;;47.50;26.90;;;;;;;;;;6597346;28;20177;-91
2022/12/10 14:32:20;;;;;;;49.93;30.27;;;;;;;;;;6595793;28;20210;-91
2022/12/10 14:35:30;;;;;;;45.30;26.77;;;;;;;;;;6578265;28;20258;-90
2022/12/10 14:38:41;;;;;;;45.70;26.80;;;;;;;;;;6579555;28;20176;-91
2022/12/10 14:41:53;;;;;;;36.17;21.70;;;;;;;;;;6596397;28;20200;-90
2022/12/10 14:45:04;;;;;;;35.60;17.60;;;;;;;;;;6595989;28;20204;-91
2022/12/10 14:48:16;;;;;;;38.80;18.97;;;;;;;;;;6595516;28;20184;-90
2022/12/10 14:51:31;;;;;;;47.03;22.17;;;;;;;;;;6579358;28;20203;-90
2022/12/10 14:54:41;;;;;;;41.53;21.53;;;;;;;;;;6563842;28;20184;-91
2022/12/10 14:57:54;;;;;;;46.53;24.60;;;;;;;;;;6596340;28;20637;-91
2022/12/10 15:01:05;;;;;;;45.97;22.97;;;;;;;;;;6595877;28;20234;-90
2022/12/10 15:04:16;;;;;;;45.40;23.33;;;;;;;;;;6596447;28;20172;-91
2022/12/10 15:07:31;;;;;;;63.27;30.10;;;;;;;;;;6596942;28;20500;-91
2022/12/10 15:10:46;;;;;;;70.17;36.13;;;;;;;;;;6596653;28;20180;-91
2022/12/10 15:13:58;;;;;;;58.03;30.57;;;;;;;;;;6595587;28;20180;-91
2022/12/10 15:17:28;;;;;;;61.53;31.43;;;;;;;;;;6577187;28;20262;-91
2022/12/10 15:20:49;;;;;;;70.67;34.97;;;;;;;;;;6575731;28;20184;-91
2022/12/10 15:24:25;;;;;;;45.50;25.70;;;;;;;;;;6596173;28;20161;-91
2022/12/10 15:27:35;;;;;;;51.10;27.87;;;;;;;;;;6592165;28;20196;-91
2022/12/10 15:30:50;;;;;;;48.57;23.63;;;;;;;;;;6597955;28;20508;-91
2022/12/10 15:34:05;;;;;;;51.03;26.60;;;;;;;;;;6607184;28;20231;-91
2022/12/10 15:37:18;;;;;;;52.33;25.63;;;;;;;;;;6627003;28;20171;-91
2022/12/10 15:40:30;;;;;;;53.20;27.00;;;;;;;;;;6626584;28;20187;-91
2022/12/10 15:43:49;;;;;;;55.13;27.27;;;;;;;;;;6609038;28;20168;-91
2022/12/10 15:47:20;;;;;;;42.17;23.73;;;;;;;;;;6609585;28;20261;-91
2022/12/10 15:50:30;;;;;;;62.07;32.07;;;;;;;;;;6607748;28;20179;-91
2022/12/10 15:53:40;;;;;;;56.87;29.20;;;;;;;;;;6609761;28;20180;-91
2022/12/10 15:56:51;;;;;;;49.87;25.33;;;;;;;;;;6626480;28;20312;-91
2022/12/10 16:00:10;;;;;;;56.50;28.63;;;;;;;;;;6626508;28;20674;-91
2022/12/10 16:03:22;;;;;;;73.83;36.57;;;;;;;;;;6626399;28;20168;-92
2022/12/10 16:06:32;;;;;;;72.70;37.60;;;;;;;;;;6608462;28;20204;-91
2022/12/10 16:09:42;;;;;;;59.87;32.83;;;;;;;;;;6608235;28;20180;-91
2022/12/10 16:12:58;;;;;;;54.77;27.47;;;;;;;;;;6626125;28;20318;-92
2022/12/10 16:16:09;;;;;;;45.30;23.20;;;;;;;;;;6608780;28;20536;-91
2022/12/10 16:19:19;;;;;;;44.90;22.70;;;;;;;;;;6625983;28;20234;-92
2022/12/10 16:22:30;;;;;;;68.93;34.80;;;;;;;;;;6607994;28;20176;-91
2022/12/10 16:25:45;;;;;;;83.97;42.20;;;;;;;;;;6625633;28;20603;-91
2022/12/10 16:28:55;;;;;;;90.70;47.53;;;;;;;;;;6607925;28;20214;-91
2022/12/10 16:32:05;;;;;;;79.73;38.37;;;;;;;;;;6626236;28;20630;-91
2022/12/10 16:35:16;;;;;;;62.87;31.10;;;;;;;;;;6625710;28;20231;-90
2022/12/10 16:38:27;;;;;;;75.83;36.00;;;;;;;;;;6625662;28;20238;-90
2022/12/10 16:41:37;;;;;;;47.30;24.20;;;;;;;;;;6624638;28;20240;-90
2022/12/10 16:44:47;;;;;;;47.87;26.40;;;;;;;;;;6624294;28;20280;-90
2022/12/10 16:47:57;;;;;;;43.17;23.37;;;;;;;;;;6624755;28;20176;-91
2022/12/10 16:51:18;;;;;;;60.80;30.83;;;;;;;;;;6625194;28;20200;-90
2022/12/10 16:54:28;;;;;;;82.37;41.57;;;;;;;;;;6625445;28;20187;-89
2022/12/10 16:57:43;;;;;;;50.67;28.23;;;;;;;;;;6625259;28;20518;-89
2022/12/10 17:00:53;;;;;;;51.13;27.30;;;;;;;;;;6606989;28;20263;-89
2022/12/10 17:04:04;;;;;;;62.67;34.37;;;;;;;;;;6625243;28;20167;-89
2022/12/10 17:07:14;;;;;;;58.20;29.53;;;;;;;;;;6606840;28;20235;-89
2022/12/10 17:13:53;;;;;;;44.13;21.37;;;;;;;;;;6624741;28;20171;-89
2022/12/10 17:17:04;;;;;;;40.80;21.43;;;;;;;;;;6625235;28;20267;-89
2022/12/10 17:20:15;;;;;;;33.20;19.03;;;;;;;;;;6624379;28;20191;-89
2022/12/10 17:23:25;;;;;;;46.70;23.67;;;;;;;;;;6624814;28;20562;-89
2022/12/10 17:26:37;;;;;;;49.07;25.93;;;;;;;;;;6624253;28;20195;-89
2022/12/10 17:29:53;;;;;;;45.63;21.67;;;;;;;;;;6625140;28;20176;-89
2022/12/10 17:33:04;;;;;;;52.03;24.73;;;;;;;;;;6624241;28;20163;-88
2022/12/10 17:36:14;;;;;;;41.03;21.23;;;;;;;;;;6625015;28;20223;-89
2022/12/10 17:39:24;;;;;;;50.23;25.03;;;;;;;;;;6623229;28;20644;-89
2022/12/10 17:42:35;;;;;;;44.17;18.93;;;;;;;;;;6623654;28;20202;-89
2022/12/10 17:45:45;;;;;;;40.47;19.67;;;;;;;;;;6623784;28;20211;-89
2022/12/10 17:48:55;;;;;;;42.33;18.97;;;;;;;;;;6624276;28;20251;-89
2022/12/10 17:52:06;;;;;;;41.30;19.60;;;;;;;;;;6623056;28;20540;-88
2022/12/10 17:55:16;;;;;;;41.40;19.63;;;;;;;;;;6622658;28;20183;-89
2022/12/10 17:58:27;;;;;;;37.17;19.33;;;;;;;;;;6623859;28;20168;-89
2022/12/10 18:01:38;;;;;;;38.10;19.10;;;;;;;;;;6601939;28;20203;-89
2022/12/10 18:04:48;;;;;;;48.80;23.80;;;;;;;;;;6605080;28;20560;-89
2022/12/10 18:07:58;;;;;;;44.37;20.03;;;;;;;;;;6623669;28;20271;-89
2022/12/10 18:11:11;;;;;;;38.23;19.90;;;;;;;;;;6623593;28;20172;-89
2022/12/10 18:14:21;;;;;;;49.80;24.30;;;;;;;;;;6621935;28;20645;-89
2022/12/10 18:17:31;;;;;;;46.83;23.23;;;;;;;;;;6604592;28;20171;-89
2022/12/10 18:20:42;;;;;;;71.13;33.70;;;;;;;;;;6623202;28;20186;-89
2022/12/10 18:23:52;;;;;;;50.27;25.33;;;;;;;;;;6622929;28;20174;-89
2022/12/10 18:27:02;;;;;;;57.87;26.67;;;;;;;;;;6623128;28;20204;-89
2022/12/10 18:30:17;;;;;;;120.97;50.37;;;;;;;;;;6622816;28;20266;-89
2022/12/10 18:33:27;;;;;;;81.83;38.47;;;;;;;;;;6604663;28;20210;-89
2022/12/10 18:36:40;;;;;;;107.47;45.33;;;;;;;;;;6604295;28;20310;-88
2022/12/10 18:39:50;;;;;;;135.90;60.33;;;;;;;;;;6622380;28;20199;-89
2022/12/10 18:43:01;;;;;;;88.70;42.97;;;;;;;;;;6622474;28;20188;-92
2022/12/10 18:46:12;;;;;;;75.20;33.00;;;;;;;;;;6602822;28;20214;-93
2022/12/10 18:49:23;;;;;;;66.37;31.83;;;;;;;;;;6621232;28;20176;-90
2022/12/10 18:52:33;;;;;;;70.77;32.63;;;;;;;;;;6612282;28;20184;-90
2022/12/10 18:55:44;;;;;;;59.80;30.80;;;;;;;;;;6618673;28;20270;-91
2022/12/10 18:58:54;;;;;;;52.63;26.10;;;;;;;;;;6621376;28;20163;-91
2022/12/10 19:02:04;;;;;;;51.23;26.80;;;;;;;;;;6596430;28;20189;-91
2022/12/10 19:05:15;;;;;;;32.13;17.40;;;;;;;;;;6596252;28;20227;-90